createdAt,value
2019-01-12T00:01:14.367Z,9.30
2019-01-12T00:03:43.251Z,10.10
2019-01-12T00:06:12.175Z,12.17
2019-01-12T00:08:41.000Z,10.47
2019-01-12T00:11:09.820Z,9.23
2019-01-12T00:13:38.673Z,8.17
2019-01-12T00:16:07.521Z,8.67
2019-01-12T00:18:36.409Z,8.20
2019-01-12T00:21:05.378Z,6.93
2019-01-12T00:23:34.217Z,6.73
2019-01-12T00:26:03.146Z,8.10
2019-01-12T00:28:31.924Z,11.87
2019-01-12T00:31:01.337Z,8.77
2019-01-12T00:33:30.264Z,18.67
2019-01-12T00:35:59.158Z,3.10
2019-01-12T00:38:28.185Z,5.93
2019-01-12T00:40:57.093Z,6.80
2019-01-12T00:43:26.065Z,9.58
2019-01-12T00:45:54.910Z,12.17
2019-01-12T00:48:23.752Z,8.80
2019-01-12T00:50:52.609Z,11.23
2019-01-12T00:53:21.389Z,17.30
2019-01-12T00:55:50.470Z,11.67
2019-01-12T00:58:19.355Z,12.90
2019-01-12T01:00:48.282Z,9.87
2019-01-12T01:03:17.253Z,11.10
2019-01-12T01:05:46.377Z,10.73
2019-01-12T01:08:15.146Z,13.20
2019-01-12T01:10:43.922Z,13.53
2019-01-12T01:13:12.710Z,12.53
2019-01-12T01:15:41.487Z,11.30
2019-01-12T01:18:10.272Z,10.57
2019-01-12T01:20:40.207Z,13.70
2019-01-12T01:23:09.021Z,11.97
2019-01-12T01:25:37.931Z,9.27
2019-01-12T01:28:06.922Z,13.17
2019-01-12T01:30:35.657Z,11.13
2019-01-12T01:33:04.495Z,12.17
2019-01-12T01:35:33.419Z,13.70
2019-01-12T01:38:02.266Z,11.47
2019-01-12T01:40:31.105Z,10.67
2019-01-12T01:43:00.142Z,11.63
2019-01-12T01:45:28.943Z,9.43
2019-01-12T01:47:57.847Z,13.77
2019-01-12T01:50:26.623Z,11.07
2019-01-12T01:52:55.483Z,10.33
2019-01-12T01:55:24.388Z,11.23
2019-01-12T01:57:53.180Z,8.53
2019-01-12T02:00:22.171Z,8.47
2019-01-12T02:02:51.076Z,9.67
2019-01-12T02:05:19.932Z,10.43
2019-01-12T02:07:49.339Z,12.88
2019-01-12T02:10:22.757Z,13.27
2019-01-12T02:12:51.652Z,10.93
2019-01-12T02:15:21.209Z,10.53
2019-01-12T02:17:50.333Z,16.53
2019-01-12T02:20:19.050Z,17.57
2019-01-12T02:22:47.816Z,16.07
2019-01-12T02:25:16.576Z,16.30
2019-01-12T02:27:45.521Z,11.13
2019-01-12T02:30:24.992Z,16.40
2019-01-12T02:32:54.632Z,19.03
2019-01-12T02:35:23.529Z,8.40
2019-01-12T02:37:52.274Z,18.63
2019-01-12T02:40:21.153Z,14.40
2019-01-12T02:42:49.980Z,9.43
2019-01-12T02:45:18.849Z,9.53
2019-01-12T02:47:47.648Z,10.67
2019-01-12T02:50:16.474Z,12.40
2019-01-12T02:52:45.189Z,9.00
2019-01-12T02:55:14.057Z,11.57
2019-01-12T02:57:42.987Z,13.13
2019-01-12T03:00:17.144Z,7.77
2019-01-12T03:02:45.969Z,10.33
2019-01-12T03:05:14.926Z,13.40
2019-01-12T03:07:43.643Z,10.57
2019-01-12T03:10:13.815Z,7.57
2019-01-12T03:12:42.666Z,12.67
2019-01-12T03:15:13.600Z,17.47
2019-01-12T03:17:42.483Z,10.90
2019-01-12T03:20:13.342Z,11.37
2019-01-12T03:22:42.084Z,17.53
2019-01-12T03:25:17.677Z,10.50
2019-01-12T03:27:41.786Z,7.53
2019-01-12T03:30:14.181Z,12.27
2019-01-12T03:32:43.153Z,6.47
2019-01-12T03:35:12.235Z,11.90
2019-01-12T03:37:41.309Z,11.53
2019-01-12T03:40:13.778Z,9.43
2019-01-12T03:42:42.687Z,13.80
2019-01-12T03:45:12.712Z,6.67
2019-01-12T03:47:41.635Z,8.57
2019-01-12T03:50:11.749Z,10.50
2019-01-12T03:52:40.692Z,5.63
2019-01-12T03:55:09.732Z,9.93
2019-01-12T03:57:38.726Z,7.43
2019-01-12T04:00:17.429Z,8.03
2019-01-12T04:02:46.409Z,10.80
2019-01-12T04:05:15.632Z,6.87
2019-01-12T04:07:44.656Z,8.30
2019-01-12T04:10:14.005Z,7.70
2019-01-12T04:12:43.034Z,10.13
2019-01-12T04:15:12.465Z,4.70
2019-01-12T04:17:41.444Z,4.73
2019-01-12T04:20:12.618Z,9.63
2019-01-12T04:22:42.797Z,7.60
2019-01-12T04:25:11.818Z,6.60
2019-01-12T04:27:40.795Z,9.93
2019-01-12T04:30:15.390Z,5.70
2019-01-12T04:32:44.264Z,6.47
2019-01-12T04:35:13.129Z,8.67
2019-01-12T04:37:42.049Z,8.03
2019-01-12T04:40:14.153Z,6.63
2019-01-12T04:42:42.926Z,5.37
2019-01-12T04:45:11.924Z,10.83
2019-01-12T04:47:40.812Z,8.63
2019-01-12T04:50:12.109Z,5.30
2019-01-12T04:52:40.947Z,6.03
2019-01-12T04:55:10.139Z,6.10
2019-01-12T04:57:39.074Z,5.93
2019-01-12T05:00:10.878Z,5.17
2019-01-12T05:02:39.816Z,3.43
2019-01-12T05:05:08.876Z,7.83
2019-01-12T05:07:37.705Z,4.30
2019-01-12T05:10:07.994Z,2.00
2019-01-12T05:12:36.883Z,2.67
2019-01-12T05:15:06.959Z,6.27
2019-01-12T05:17:35.731Z,3.77
2019-01-12T05:20:08.279Z,6.53
2019-01-12T05:22:37.232Z,3.80
2019-01-12T05:25:06.569Z,2.97
2019-01-12T05:27:35.368Z,6.87
2019-01-12T05:30:05.679Z,4.53
2019-01-12T05:32:34.443Z,5.20
2019-01-12T05:35:03.278Z,4.10
2019-01-12T05:37:32.067Z,7.43
2019-01-12T05:40:00.859Z,9.43
2019-01-12T05:42:29.678Z,7.63
2019-01-12T05:44:58.494Z,4.73
2019-01-12T05:47:27.281Z,6.53
2019-01-12T05:49:56.004Z,5.87
2019-01-12T05:52:24.839Z,6.73
2019-01-12T05:54:53.582Z,4.90
2019-01-12T05:57:22.377Z,3.73
2019-01-12T05:59:51.126Z,3.20
2019-01-12T06:02:19.929Z,5.40
2019-01-12T06:04:48.676Z,5.83
2019-01-12T06:07:17.468Z,2.80
2019-01-12T06:09:46.318Z,3.08
2019-01-12T06:12:15.118Z,3.27
2019-01-12T06:14:43.899Z,5.50
2019-01-12T06:17:12.723Z,3.33
2019-01-12T06:19:41.477Z,5.27
2019-01-12T06:22:10.316Z,2.90
2019-01-12T06:24:39.168Z,2.10
2019-01-12T06:27:07.984Z,5.33
2019-01-12T06:29:36.836Z,2.63
2019-01-12T06:32:05.782Z,1.90
2019-01-12T06:34:34.657Z,1.63
2019-01-12T06:37:03.452Z,2.53
2019-01-12T06:39:32.319Z,2.07
2019-01-12T06:42:01.184Z,1.60
2019-01-12T06:44:30.153Z,3.63
2019-01-12T06:46:59.009Z,1.63
2019-01-12T06:49:27.970Z,1.73
2019-01-12T06:51:56.708Z,1.40
2019-01-12T06:54:25.607Z,1.07
2019-01-12T06:56:54.471Z,1.10
2019-01-12T06:59:23.429Z,0.97
2019-01-12T07:01:52.374Z,1.47
2019-01-12T07:04:21.478Z,1.27
2019-01-12T07:06:50.387Z,2.40
2019-01-12T07:09:19.208Z,1.87
2019-01-12T07:11:48.123Z,1.37
2019-01-12T07:14:16.965Z,1.70
2019-01-12T07:16:46.037Z,2.83
2019-01-12T07:19:15.099Z,1.00
2019-01-12T07:21:45.323Z,3.20
2019-01-12T07:24:15.194Z,1.53
2019-01-12T07:26:44.036Z,3.30
2019-01-12T07:29:12.890Z,3.00
2019-01-12T07:31:41.651Z,2.63
2019-01-12T07:34:10.486Z,3.00
2019-01-12T07:36:39.403Z,1.43
2019-01-12T07:39:09.022Z,1.00
2019-01-12T07:41:37.992Z,0.70
2019-01-12T07:44:06.743Z,1.37
2019-01-12T07:46:35.603Z,0.80
2019-01-12T07:49:04.620Z,1.63
2019-01-12T07:51:33.567Z,1.27
2019-01-12T07:54:02.594Z,1.50
2019-01-12T07:56:31.526Z,2.40
2019-01-12T07:59:00.339Z,1.63
2019-01-12T08:01:29.340Z,0.97
2019-01-12T08:03:58.237Z,1.47
2019-01-12T08:06:27.130Z,1.00
2019-01-12T08:08:56.107Z,1.73
2019-01-12T08:11:24.948Z,2.47
2019-01-12T08:13:54.299Z,1.47
2019-01-12T08:16:23.306Z,0.97
2019-01-12T08:18:52.275Z,1.97
2019-01-12T08:21:21.282Z,1.80
2019-01-12T08:23:50.126Z,2.90
2019-01-12T08:26:18.942Z,1.80
2019-01-12T08:28:47.877Z,0.93
2019-01-12T08:31:16.889Z,1.70
2019-01-12T08:33:45.680Z,1.80
2019-01-12T08:36:14.510Z,4.10
2019-01-12T08:38:43.422Z,7.43
2019-01-12T08:41:12.147Z,3.27
2019-01-12T08:43:41.070Z,2.40
2019-01-12T08:46:11.446Z,2.33
2019-01-12T08:48:40.555Z,2.47
2019-01-12T08:51:09.564Z,2.70
2019-01-12T08:53:39.531Z,2.15
2019-01-12T08:56:08.382Z,1.77
2019-01-12T08:58:37.332Z,1.60
2019-01-12T09:01:06.279Z,1.27
2019-01-12T09:03:35.178Z,2.17
2019-01-12T09:06:04.208Z,1.57
2019-01-12T09:08:33.157Z,0.93
2019-01-12T09:11:01.933Z,1.27
2019-01-12T09:13:30.868Z,1.90
2019-01-12T09:15:59.667Z,0.70
2019-01-12T09:18:28.664Z,0.77
2019-01-12T09:20:57.421Z,0.77
2019-01-12T09:23:26.488Z,1.23
2019-01-12T09:25:55.226Z,1.03
2019-01-12T09:28:24.142Z,1.37
2019-01-12T09:30:53.034Z,1.07
2019-01-12T09:33:21.956Z,1.23
2019-01-12T09:35:50.737Z,0.93
2019-01-12T09:38:19.606Z,1.13
2019-01-12T09:40:48.497Z,1.10
2019-01-12T09:43:17.289Z,0.60
2019-01-12T09:45:46.067Z,1.40
2019-01-12T09:48:16.010Z,1.20
2019-01-12T09:50:44.930Z,1.00
2019-01-12T09:53:13.730Z,4.23
2019-01-12T09:55:42.502Z,1.50
2019-01-12T09:58:11.434Z,4.20
2019-01-12T10:00:40.541Z,1.40
2019-01-12T10:03:09.329Z,2.17
2019-01-12T10:05:55.254Z,3.83
2019-01-12T10:08:35.177Z,3.07
2019-01-12T10:11:15.115Z,2.37
2019-01-12T10:13:55.314Z,3.13
2019-01-12T10:16:36.727Z,2.10
2019-01-12T10:19:17.898Z,2.23
2019-01-12T10:21:46.836Z,3.73
2019-01-12T10:24:15.884Z,2.10
2019-01-12T10:26:50.898Z,3.37
2019-01-12T10:29:19.877Z,2.57
2019-01-12T10:31:49.007Z,2.07
2019-01-12T10:34:21.661Z,2.77
2019-01-12T10:36:52.072Z,2.20
2019-01-12T10:39:22.031Z,2.97
2019-01-12T10:41:51.108Z,1.80
2019-01-12T10:44:20.228Z,1.80
2019-01-12T10:47:01.240Z,2.83
2019-01-12T10:49:41.738Z,1.63
2019-01-12T10:52:22.670Z,1.63
2019-01-12T10:55:08.083Z,2.47
2019-01-12T10:57:37.071Z,2.70
2019-01-12T11:00:11.868Z,2.40
2019-01-12T11:02:40.883Z,2.60
2019-01-12T11:05:10.251Z,2.90
2019-01-12T11:07:39.963Z,2.93
2019-01-12T11:10:10.590Z,2.30
2019-01-12T11:12:39.436Z,3.77
2019-01-12T11:15:10.613Z,2.47
2019-01-12T11:17:39.631Z,3.03
2019-01-12T11:20:08.908Z,5.77
2019-01-12T11:22:37.763Z,4.67
2019-01-12T11:25:08.261Z,2.80
2019-01-12T11:27:37.264Z,3.00
2019-01-12T11:30:08.634Z,3.73
2019-01-12T11:32:37.586Z,3.00
2019-01-12T11:35:07.202Z,3.12
2019-01-12T11:37:36.071Z,4.53
2019-01-12T11:40:06.964Z,3.37
2019-01-12T11:42:35.936Z,3.03
2019-01-12T11:45:05.874Z,2.57
2019-01-12T11:47:34.940Z,2.80
2019-01-12T11:50:06.345Z,3.57
2019-01-12T11:52:38.180Z,2.87
2019-01-12T11:55:10.552Z,4.03
2019-01-12T11:57:40.058Z,5.20
2019-01-12T12:00:26.842Z,4.07
2019-01-12T12:02:55.884Z,3.83
2019-01-12T12:05:25.252Z,3.17
2019-01-12T12:07:54.241Z,4.77
2019-01-12T12:10:23.069Z,4.40
2019-01-12T12:12:52.015Z,5.70
2019-01-12T12:15:21.731Z,5.17
2019-01-12T12:17:51.892Z,5.58
2019-01-12T12:20:23.352Z,4.63
2019-01-12T12:22:54.107Z,4.13
2019-01-12T12:25:23.236Z,4.77
2019-01-12T12:27:52.294Z,4.50
2019-01-12T12:30:40.692Z,4.23
2019-01-12T12:33:10.051Z,5.37
2019-01-12T12:35:39.140Z,6.63
2019-01-12T12:38:08.085Z,5.60
2019-01-12T12:40:37.279Z,4.73
2019-01-12T12:43:06.222Z,5.83
2019-01-12T12:45:36.573Z,5.40
2019-01-12T12:48:05.891Z,6.03
2019-01-12T12:50:34.951Z,6.53
2019-01-12T12:53:04.012Z,5.90
2019-01-12T12:55:32.949Z,6.07
2019-01-12T12:58:01.895Z,5.37
2019-01-12T13:00:32.295Z,7.33
2019-01-12T13:03:01.459Z,5.67
2019-01-12T13:05:30.589Z,5.77
2019-01-12T13:07:59.714Z,5.12
2019-01-12T13:10:30.295Z,5.87
2019-01-12T13:12:59.192Z,5.97
2019-01-12T13:15:28.159Z,5.93
2019-01-12T13:17:57.130Z,5.93
2019-01-12T13:20:26.039Z,4.87
2019-01-12T13:22:54.921Z,4.60
2019-01-12T13:25:23.793Z,4.33
2019-01-12T13:27:52.903Z,4.30
2019-01-12T13:30:26.148Z,3.70
2019-01-12T13:32:55.044Z,4.83
2019-01-12T13:35:24.006Z,4.53
2019-01-12T13:37:54.582Z,3.97
2019-01-12T13:40:25.734Z,4.50
2019-01-12T13:42:55.673Z,3.70
2019-01-12T13:45:24.927Z,3.97
2019-01-12T13:47:55.224Z,4.10
2019-01-12T13:50:26.484Z,4.03
2019-01-12T13:53:02.121Z,2.80
2019-01-12T13:55:31.467Z,4.00
2019-01-12T13:58:00.667Z,2.80
2019-01-12T14:04:10.456Z,3.07
2019-01-12T14:06:39.569Z,2.73
2019-01-12T14:09:09.939Z,2.47
2019-01-12T14:11:38.867Z,3.10
2019-01-12T14:14:08.588Z,2.90
2019-01-12T14:16:37.630Z,2.60
2019-01-12T14:19:06.934Z,2.07
2019-01-12T14:21:35.972Z,2.37
2019-01-12T14:24:05.192Z,2.13
2019-01-12T14:26:34.172Z,1.90
2019-01-12T14:29:03.116Z,2.53
2019-01-12T14:31:32.102Z,1.93
2019-01-12T14:34:02.047Z,2.47
2019-01-12T14:36:30.953Z,1.90
2019-01-12T14:38:59.898Z,3.43
2019-01-12T14:41:28.882Z,1.60
2019-01-12T14:43:58.041Z,2.03
2019-01-12T14:46:26.976Z,1.77
2019-01-12T14:48:55.893Z,1.60
2019-01-12T14:51:24.959Z,2.20
2019-01-12T14:53:54.082Z,1.80
2019-01-12T14:56:23.237Z,1.30
2019-01-12T14:58:52.443Z,1.30
2019-01-12T15:01:21.482Z,1.70
2019-01-12T15:03:50.613Z,1.10
2019-01-12T15:06:19.520Z,2.30
2019-01-12T15:08:48.479Z,0.70
2019-01-12T15:11:17.715Z,1.03
2019-01-12T15:13:46.834Z,1.10
2019-01-12T15:16:15.740Z,0.67
2019-01-12T15:18:45.111Z,0.60
2019-01-12T15:21:14.306Z,1.10
2019-01-12T15:23:59.864Z,0.87
2019-01-12T15:26:28.993Z,1.60
2019-01-12T15:28:58.169Z,1.30
2019-01-12T15:31:27.087Z,0.63
2019-01-12T15:33:56.003Z,1.43
2019-01-12T15:36:24.894Z,4.67
2019-01-12T15:38:53.713Z,0.77
2019-01-12T15:41:22.657Z,1.97
2019-01-12T15:43:52.000Z,2.00
2019-01-12T15:46:21.192Z,0.83
2019-01-12T15:48:49.992Z,2.60
2019-01-12T15:51:18.849Z,0.97
2019-01-12T15:53:47.765Z,0.93
2019-01-12T15:56:16.663Z,1.17
2019-01-12T15:58:45.544Z,1.10
2019-01-12T16:01:14.408Z,1.90
2019-01-12T16:03:43.353Z,1.23
2019-01-12T16:06:12.171Z,1.53
2019-01-12T16:08:41.099Z,1.60
2019-01-12T16:11:09.851Z,1.70
2019-01-12T16:13:38.758Z,1.43
2019-01-12T16:16:07.599Z,2.20
2019-01-12T16:18:36.479Z,2.97
2019-01-12T16:21:05.194Z,1.40
2019-01-12T16:23:34.112Z,1.13
2019-01-12T16:26:03.010Z,1.97
2019-01-12T16:28:31.802Z,2.13
2019-01-12T16:31:01.000Z,1.97
2019-01-12T16:33:29.799Z,1.63
2019-01-12T16:35:58.623Z,1.30
2019-01-12T16:38:27.510Z,1.40
2019-01-12T16:40:56.493Z,2.37
2019-01-12T16:43:25.276Z,1.30
2019-01-12T16:45:54.196Z,1.40
2019-01-12T16:48:22.963Z,3.20
2019-01-12T16:50:51.916Z,1.40
2019-01-12T16:53:21.188Z,1.60
2019-01-12T16:55:54.163Z,1.43
2019-01-12T16:58:30.060Z,1.40
2019-01-12T17:00:53.834Z,1.43
2019-01-12T17:03:22.688Z,2.12
2019-01-12T17:05:51.662Z,1.80
2019-01-12T17:08:20.999Z,1.57
2019-01-12T17:10:50.078Z,1.40
2019-01-12T17:13:18.935Z,2.13
2019-01-12T17:15:49.273Z,1.30
2019-01-12T17:18:18.069Z,0.83
2019-01-12T17:20:46.825Z,1.00
2019-01-12T17:23:15.875Z,1.52
2019-01-12T17:25:45.601Z,1.00
2019-01-12T17:28:15.891Z,1.60
2019-01-12T17:30:45.129Z,1.20
2019-01-12T17:33:14.310Z,0.93
2019-01-12T17:35:43.904Z,1.17
2019-01-12T17:38:13.237Z,1.10
2019-01-12T17:40:42.205Z,1.57
2019-01-12T17:43:11.695Z,1.50
2019-01-12T17:45:41.087Z,2.60
2019-01-12T17:48:10.089Z,1.60
2019-01-12T17:50:39.157Z,1.70
2019-01-12T17:53:08.272Z,1.77
2019-01-12T17:55:37.942Z,1.50
2019-01-12T17:58:07.649Z,3.23
2019-01-12T18:00:52.593Z,2.23
2019-01-12T18:03:21.722Z,1.83
2019-01-12T18:05:50.797Z,1.53
2019-01-12T18:08:19.800Z,2.47
2019-01-12T18:10:48.727Z,2.57
2019-01-12T18:13:17.781Z,2.97
2019-01-12T18:15:46.813Z,2.60
2019-01-12T18:18:15.716Z,2.67
2019-01-12T18:20:44.529Z,1.90
2019-01-12T18:23:13.524Z,2.23
2019-01-12T18:25:42.439Z,2.50
2019-01-12T18:28:11.395Z,2.80
2019-01-12T18:30:40.326Z,2.40
2019-01-12T18:33:09.333Z,2.57
2019-01-12T18:35:39.602Z,2.07
2019-01-12T18:38:08.628Z,3.43
2019-01-12T18:40:37.547Z,1.90
2019-01-12T18:43:06.532Z,2.77
2019-01-12T18:45:35.657Z,1.43
2019-01-12T18:48:04.769Z,2.80
2019-01-12T18:50:33.861Z,1.63
2019-01-12T18:53:06.167Z,1.70
2019-01-12T18:55:35.166Z,1.93
2019-01-12T18:58:04.037Z,2.03
2019-01-12T19:00:35.996Z,2.23
2019-01-12T19:03:05.281Z,2.23
2019-01-12T19:05:34.194Z,2.27
2019-01-12T19:08:03.410Z,1.67
2019-01-12T19:10:32.549Z,2.57
2019-01-12T19:13:01.721Z,2.13
2019-01-12T19:15:31.969Z,2.17
2019-01-12T19:18:01.440Z,2.45
2019-01-12T19:20:30.429Z,1.83
2019-01-12T19:22:59.316Z,3.27
2019-01-12T19:25:28.194Z,3.20
2019-01-12T19:27:57.225Z,3.13
2019-01-12T19:30:26.079Z,2.37
2019-01-12T19:32:54.941Z,3.07
2019-01-12T19:35:23.906Z,3.07
2019-01-12T19:37:52.749Z,2.50
2019-01-12T19:40:23.590Z,2.77
2019-01-12T19:42:52.692Z,2.97
2019-01-12T19:45:22.098Z,4.53
2019-01-12T19:47:52.503Z,2.70
2019-01-12T19:50:26.019Z,2.73
2019-01-12T19:52:55.917Z,2.90
2019-01-12T19:55:25.704Z,3.33
2019-01-12T19:57:54.751Z,3.13
2019-01-12T20:00:27.077Z,3.30
2019-01-12T20:02:56.059Z,3.60
2019-01-12T20:05:25.275Z,2.73
2019-01-12T20:07:54.289Z,3.17
2019-01-12T20:10:24.552Z,2.27
2019-01-12T20:12:53.594Z,2.70
2019-01-12T20:15:24.482Z,2.47
2019-01-12T20:17:54.075Z,2.80
2019-01-12T20:20:23.168Z,1.90
2019-01-12T20:22:54.265Z,2.33
2019-01-12T20:25:33.153Z,5.60
2019-01-12T20:28:05.352Z,3.10
2019-01-12T20:30:39.373Z,2.57
2019-01-12T20:33:27.268Z,1.97
2019-01-12T20:36:29.286Z,2.17
2019-01-12T20:39:27.238Z,2.43
2019-01-12T20:42:34.225Z,2.57
2019-01-12T20:45:49.016Z,3.63
2019-01-12T20:48:38.834Z,3.25
2019-01-12T20:51:38.476Z,3.73
2019-01-12T20:54:24.050Z,3.33
2019-01-12T20:57:40.228Z,2.60
2019-01-12T21:00:43.827Z,2.90
2019-01-12T21:03:38.762Z,2.80
2019-01-12T21:06:15.740Z,2.37
2019-01-12T21:08:58.965Z,2.60
2019-01-12T21:12:04.806Z,2.70
2019-01-12T21:15:14.079Z,2.97
2019-01-12T21:17:43.008Z,3.07
2019-01-12T21:20:12.292Z,2.47
2019-01-12T21:22:41.176Z,2.20
2019-01-12T21:25:10.181Z,2.50
2019-01-12T21:27:39.132Z,5.67
2019-01-12T21:30:12.137Z,4.17
2019-01-12T21:32:41.001Z,2.20
2019-01-12T21:35:10.395Z,3.67
2019-01-12T21:37:39.229Z,3.23
2019-01-12T21:40:08.527Z,5.07
2019-01-12T21:42:37.441Z,4.03
2019-01-12T21:45:08.227Z,2.60
2019-01-12T21:47:37.313Z,3.03
2019-01-12T21:50:08.391Z,2.57
2019-01-12T21:52:37.237Z,3.90
2019-01-12T21:55:06.878Z,2.53
2019-01-12T21:57:35.820Z,1.67
2019-01-12T22:00:07.431Z,1.73
2019-01-12T22:02:36.307Z,1.87
2019-01-12T22:05:06.060Z,3.00
2019-01-12T22:07:34.874Z,2.30
2019-01-12T22:10:04.308Z,2.70
2019-01-12T22:12:33.124Z,2.17
2019-01-12T22:15:01.940Z,2.07
2019-01-12T22:17:30.724Z,3.80
2019-01-12T22:19:59.604Z,1.77
2019-01-12T22:22:28.443Z,1.90
2019-01-12T22:24:57.302Z,2.00
2019-01-12T22:27:26.308Z,2.13
2019-01-12T22:29:55.169Z,2.47
2019-01-12T22:32:24.063Z,1.40
2019-01-12T22:34:52.781Z,1.87
2019-01-12T22:37:21.660Z,1.57
2019-01-12T22:39:50.720Z,1.33
2019-01-12T22:42:19.527Z,1.80
2019-01-12T22:44:48.333Z,2.27
2019-01-12T22:47:17.199Z,2.57
2019-01-12T22:49:45.972Z,5.20
2019-01-12T22:52:14.703Z,2.87
2019-01-12T22:54:43.644Z,4.83
2019-01-12T22:57:12.551Z,3.27
2019-01-12T22:59:41.484Z,3.00
2019-01-12T23:02:10.688Z,3.03
2019-01-12T23:04:39.607Z,3.30
2019-01-12T23:07:11.522Z,3.33
2019-01-12T23:09:39.335Z,6.17
2019-01-12T23:12:08.128Z,2.33
2019-01-12T23:14:37.042Z,2.27
2019-01-12T23:17:06.312Z,3.47
2019-01-12T23:19:35.600Z,6.27
2019-01-12T23:22:04.799Z,3.53
2019-01-12T23:24:33.660Z,3.50
2019-01-12T23:27:03.113Z,4.33
2019-01-12T23:29:32.078Z,3.67
2019-01-12T23:32:01.219Z,3.23
2019-01-12T23:34:30.352Z,2.43
2019-01-12T23:36:59.419Z,4.10
2019-01-12T23:39:28.313Z,2.20
2019-01-12T23:41:57.344Z,3.10
2019-01-12T23:44:26.379Z,2.77
2019-01-12T23:46:55.264Z,3.60
2019-01-12T23:49:24.158Z,4.40
2019-01-12T23:51:52.933Z,2.67
2019-01-12T23:54:21.783Z,3.17
2019-01-12T23:56:50.557Z,3.03
2019-01-12T23:59:19.335Z,3.93
